Time;durP1;ratioP1;P1;durP2;ratioP2;P2;SDS_P1;SDS_P2;PMS_P1;PMS_P2;Temp;Humidity;BMP_temperature;BMP_pressure;BME280_temperature;BME280_humidity;BME280_pressure;Samples;Min_cycle;Max_cycle;Signal;HPM_P1;HPM_P2
2022/12/30 00:04:12;;;;;;;;;;;;;;;9.11;68.36;99463.03;10269364;29;19929;-82
2022/12/30 00:09:13;;;;;;;;;;;;;;;8.98;68.76;99472.22;10252901;29;20295;-82
2022/12/30 00:35:39;;;;;;;;;;;;;;;9.03;67.87;99476.41;10270847;29;20021;-81
2022/12/30 00:43:07;;;;;;;;;;;;;;;9.10;66.86;99480.53;10274375;29;19930;-82
2022/12/30 00:46:02;;;;;;;;;;;;;;;9.13;66.42;99465.63;10276756;29;19974;-82
2022/12/30 00:56:24;;;;;;;;;;;;;;;9.09;66.93;99485.84;10271586;29;19977;-83
2022/12/30 01:01:26;;;;;;;;;;;;;;;9.22;65.98;99484.50;10271525;29;19974;-82
2022/12/30 01:06:27;;;;;;;;;;;;;;;9.24;65.85;99500.16;10279074;29;19922;-83
2022/12/30 01:11:29;;;;;;;;;;;;;;;9.14;66.58;99504.03;10280292;29;19922;-83
2022/12/30 01:16:30;;;;;;;;;;;;;;;8.99;67.50;99508.88;10281800;29;20388;-82
2022/12/30 01:21:32;;;;;;;;;;;;;;;9.00;68.01;99531.56;10277730;29;20439;-82
2022/12/30 01:26:34;;;;;;;;;;;;;;;9.03;67.81;99541.97;10261156;29;19922;-80
2022/12/30 01:31:35;;;;;;;;;;;;;;;8.91;68.81;99546.75;10298061;29;19922;-81
2022/12/30 01:36:37;;;;;;;;;;;;;;;8.92;69.14;99551.06;10299073;29;19922;-81
2022/12/30 01:41:38;;;;;;;;;;;;;;;8.84;69.70;99557.41;10298747;28;19923;-81
2022/12/30 01:46:40;;;;;;;;;;;;;;;8.99;69.02;99565.72;10284731;29;19926;-82
2022/12/30 01:51:41;;;;;;;;;;;;;;;8.86;69.64;99573.09;10291296;29;19922;-81
2022/12/30 01:56:43;;;;;;;;;;;;;;;8.86;69.47;99559.16;10289874;28;19929;-82
2022/12/30 02:01:45;;;;;;;;;;;;;;;8.79;69.40;99568.97;10287509;29;19946;-82
2022/12/30 02:06:51;;;;;;;;;;;;;;;8.80;69.08;99563.66;10286216;29;19960;-82
2022/12/30 02:11:54;;;;;;;;;;;;;;;8.87;68.78;99561.72;10285295;29;19952;-83
2022/12/30 02:17:02;;;;;;;;;;;;;;;8.82;69.25;99581.97;10281333;29;19926;-83
2022/12/30 02:22:16;;;;;;;;;;;;;;;8.61;70.60;99575.63;10277769;29;20435;-82
2022/12/30 02:27:40;;;;;;;;;;;;;;;8.53;71.26;99577.63;10272082;29;20440;-82
2022/12/30 02:32:52;;;;;;;;;;;;;;;8.64;70.57;99591.28;10263249;29;19954;-83
2022/12/30 02:38:12;;;;;;;;;;;;;;;8.58;71.31;99608.00;10272116;29;19922;-82
2022/12/30 02:48:36;;;;;;;;;;;;;;;8.61;71.58;99641.13;10273833;28;19922;-83
2022/12/30 02:53:39;;;;;;;;;;;;;;;8.64;71.06;99637.56;10276090;28;19923;-83
2022/12/30 02:58:44;;;;;;;;;;;;;;;8.59;71.16;99640.34;10283454;29;20304;-82
2022/12/30 03:04:06;;;;;;;;;;;;;;;8.60;70.58;99647.28;10279365;29;19946;-81
2022/12/30 03:09:14;;;;;;;;;;;;;;;8.61;69.73;99658.63;10269402;28;19923;-82
2022/12/30 03:14:24;;;;;;;;;;;;;;;8.51;70.12;99663.28;10256440;29;20294;-81
2022/12/30 03:19:28;;;;;;;;;;;;;;;8.51;69.42;99669.38;10256705;29;19927;-82
2022/12/30 03:30:00;;;;;;;;;;;;;;;7.87;72.13;99681.59;10301014;23;20017;-81
2022/12/30 03:35:02;;;;;;;;;;;;;;;7.92;72.50;99684.94;10289792;28;19922;-81
2022/12/30 03:40:03;;;;;;;;;;;;;;;7.94;72.08;99690.16;10288977;28;19945;-81
2022/12/30 03:45:06;;;;;;;;;;;;;;;7.65;73.47;99703.97;10304858;28;19922;-80
2022/12/30 03:50:08;;;;;;;;;;;;;;;7.29;75.64;99706.56;10302497;28;19937;-80
2022/12/30 03:55:09;;;;;;;;;;;;;;;7.03;77.20;99712.41;10304682;28;19906;-80
2022/12/30 04:00:11;;;;;;;;;;;;;;;7.10;77.50;99713.13;10305246;28;19993;-80
2022/12/30 04:05:12;;;;;;;;;;;;;;;6.90;78.88;99710.97;10301835;28;20416;-80
2022/12/30 04:10:14;;;;;;;;;;;;;;;7.16;78.34;99718.22;10303438;29;19946;-81
2022/12/30 04:15:16;;;;;;;;;;;;;;;7.12;78.92;99729.63;10281269;29;19923;-80
2022/12/30 04:20:17;;;;;;;;;;;;;;;7.37;77.73;99730.78;10283684;29;19957;-80
2022/12/30 04:25:19;;;;;;;;;;;;;;;7.52;76.94;99735.66;10274101;29;20384;-80
2022/12/30 04:30:20;;;;;;;;;;;;;;;7.74;75.44;99741.22;10274503;29;19926;-80
2022/12/30 04:35:22;;;;;;;;;;;;;;;7.75;75.41;99736.88;10255435;29;19926;-80
2022/12/30 04:40:24;;;;;;;;;;;;;;;8.01;74.19;99752.78;10272839;29;19929;-81
2022/12/30 04:45:25;;;;;;;;;;;;;;;8.12;73.44;99760.34;10272637;29;20451;-81
2022/12/30 04:50:27;;;;;;;;;;;;;;;8.22;72.68;99760.94;10276789;28;19933;-81
2022/12/30 04:55:29;;;;;;;;;;;;;;;8.25;72.30;99769.59;10278179;29;19926;-82
2022/12/30 05:00:31;;;;;;;;;;;;;;;8.30;71.66;99777.31;10275651;29;19960;-81
2022/12/30 05:05:32;;;;;;;;;;;;;;;8.20;72.01;99781.94;10277481;28;19977;-81
2022/12/30 05:10:35;;;;;;;;;;;;;;;8.10;72.53;99793.53;10275176;29;20013;-82
2022/12/30 05:15:37;;;;;;;;;;;;;;;7.93;73.00;99793.97;10273675;28;20384;-81
2022/12/30 05:20:38;;;;;;;;;;;;;;;8.02;72.75;99791.13;10257974;29;20021;-82
2022/12/30 05:31:00;;;;;;;;;;;;;;;7.90;73.72;99786.19;10300855;29;19990;-81
2022/12/30 05:36:02;;;;;;;;;;;;;;;8.22;72.26;99790.59;10259268;29;19933;-79
2022/12/30 05:41:04;;;;;;;;;;;;;;;8.23;72.21;99789.69;10274811;29;19922;-80
2022/12/30 05:46:16;;;;;;;;;;;;;;;8.00;73.30;99790.28;10271700;29;20462;-80
2022/12/30 05:51:18;;;;;;;;;;;;;;;8.04;72.84;99793.69;10272778;29;19955;-79
2022/12/30 05:56:19;;;;;;;;;;;;;;;7.93;73.00;99806.22;10281502;28;19923;-81
2022/12/30 06:01:21;;;;;;;;;;;;;;;7.69;72.49;99815.50;10282538;29;20003;-81
2022/12/30 06:06:23;;;;;;;;;;;;;;;7.80;70.43;99824.81;10287437;29;19928;-81
2022/12/30 06:11:24;;;;;;;;;;;;;;;7.74;70.50;99824.94;10289009;29;19926;-81
2022/12/30 06:16:26;;;;;;;;;;;;;;;7.80;70.07;99830.06;10285257;29;19923;-80
2022/12/30 06:21:27;;;;;;;;;;;;;;;7.88;69.96;99823.75;10275005;29;19930;-80
2022/12/30 06:26:29;;;;;;;;;;;;;;;7.69;70.48;99821.56;10270026;28;20014;-81
2022/12/30 06:31:30;;;;;;;;;;;;;;;7.65;70.49;99837.38;10270885;29;20369;-81
2022/12/30 06:36:32;;;;;;;;;;;;;;;7.47;71.06;99862.19;10270951;29;19968;-81
2022/12/30 06:41:34;;;;;;;;;;;;;;;7.33;71.63;99865.13;10272465;29;19947;-80
2022/12/30 06:46:35;;;;;;;;;;;;;;;7.11;72.72;99866.44;10271670;29;19946;-80
2022/12/30 06:51:37;;;;;;;;;;;;;;;7.00;73.13;99880.59;10294451;29;19914;-80
2022/12/30 06:56:38;;;;;;;;;;;;;;;7.03;72.79;99892.72;10303038;29;20072;-81
2022/12/30 07:01:40;;;;;;;;;;;;;;;6.92;73.11;99910.38;10271806;29;19977;-81
2022/12/30 07:06:42;;;;;;;;;;;;;;;7.01;72.25;99911.06;10281169;29;19928;-80
2022/12/30 07:11:43;;;;;;;;;;;;;;;7.04;72.48;99911.00;10266947;29;19922;-80
2022/12/30 07:16:45;;;;;;;;;;;;;;;6.73;73.77;99917.69;10288372;29;19998;-80
2022/12/30 07:21:46;;;;;;;;;;;;;;;6.66;74.71;99929.13;10284787;29;20021;-81
2022/12/30 07:26:48;;;;;;;;;;;;;;;6.63;74.54;99935.25;10267994;29;19922;-81
2022/12/30 07:31:50;;;;;;;;;;;;;;;6.57;74.59;99957.13;10266177;29;20384;-81
2022/12/30 07:36:51;;;;;;;;;;;;;;;6.57;74.67;99953.66;10282731;29;20018;-81
2022/12/30 07:41:53;;;;;;;;;;;;;;;6.51;75.15;99949.41;10290617;28;19926;-81
2022/12/30 07:46:55;;;;;;;;;;;;;;;6.50;74.90;99934.59;10283621;29;20388;-82
2022/12/30 07:51:57;;;;;;;;;;;;;;;6.40;76.10;99943.50;10269186;29;19922;-82
2022/12/30 07:56:59;;;;;;;;;;;;;;;6.64;75.07;99941.34;10266497;29;19922;-82
2022/12/30 08:02:00;;;;;;;;;;;;;;;6.71;75.18;99942.97;10265435;29;19923;-82
2022/12/30 08:07:02;;;;;;;;;;;;;;;6.81;74.43;99939.31;10249311;29;19933;-82
2022/12/30 08:12:04;;;;;;;;;;;;;;;6.94;73.29;99946.03;10264634;29;19922;-82
2022/12/30 08:17:05;;;;;;;;;;;;;;;6.90;73.79;99967.88;10265499;29;19929;-82
2022/12/30 08:22:07;;;;;;;;;;;;;;;7.05;72.61;99961.53;10266079;29;19928;-82
2022/12/30 08:27:08;;;;;;;;;;;;;;;7.12;72.34;99972.72;10265013;29;19993;-82
2022/12/30 08:32:10;;;;;;;;;;;;;;;7.30;71.10;99964.53;10266781;29;19922;-82
2022/12/30 08:37:12;;;;;;;;;;;;;;;7.32;70.46;99973.22;10280411;29;19922;-82
2022/12/30 08:42:13;;;;;;;;;;;;;;;7.44;70.38;99972.97;10277687;29;19926;-81
2022/12/30 08:47:15;;;;;;;;;;;;;;;7.23;71.95;99968.16;10267438;29;20017;-81
2022/12/30 08:52:16;;;;;;;;;;;;;;;7.40;71.30;99984.41;10270650;28;19922;-81
2022/12/30 08:57:18;;;;;;;;;;;;;;;7.31;71.79;99977.59;10289997;29;19928;-81
2022/12/30 09:02:20;;;;;;;;;;;;;;;7.38;70.98;99987.91;10287771;29;20372;-80
2022/12/30 09:07:21;;;;;;;;;;;;;;;7.33;71.17;99999.31;10294568;29;19923;-82
2022/12/30 09:12:43;;;;;;;;;;;;;;;7.86;67.76;99993.91;10275870;29;19926;-81
2022/12/30 09:17:44;;;;;;;;;;;;;;;7.77;68.55;99986.25;10271629;29;19923;-81
2022/12/30 09:22:46;;;;;;;;;;;;;;;7.92;68.75;99990.28;10271142;29;19993;-81
2022/12/30 09:27:47;;;;;;;;;;;;;;;8.03;67.60;99991.78;10272529;29;19922;-81
2022/12/30 09:32:49;;;;;;;;;;;;;;;8.21;67.33;99990.50;10287145;23;20017;-80
2022/12/30 09:37:51;;;;;;;;;;;;;;;8.27;67.87;99997.34;10252617;29;19907;-79
2022/12/30 09:48:19;;;;;;;;;;;;;;;8.23;67.68;99969.50;10244274;29;19961;-82
2022/12/30 09:53:34;;;;;;;;;;;;;;;8.47;65.97;99957.66;10262250;29;19957;-83
2022/12/30 09:58:36;;;;;;;;;;;;;;;8.32;66.73;99958.81;10245138;29;19998;-83
2022/12/30 10:03:38;;;;;;;;;;;;;;;8.40;65.38;99943.81;10272987;28;19923;-80
2022/12/30 10:09:17;;;;;;;;;;;;;;;8.36;65.67;99934.28;10253006;29;19984;-82
2022/12/30 10:14:38;;;;;;;;;;;;;;;8.45;65.63;99921.00;10242009;29;20368;-82
2022/12/30 10:19:51;;;;;;;;;;;;;;;8.51;63.86;99914.75;10240092;29;20325;-82
2022/12/30 10:25:11;;;;;;;;;;;;;;;8.64;63.41;99907.44;10236794;29;19931;-81
2022/12/30 10:30:18;;;;;;;;;;;;;;;8.75;62.89;99901.00;10234411;29;19923;-85
2022/12/30 10:35:28;;;;;;;;;;;;;;;8.77;62.58;99903.59;10219543;29;19933;-83
2022/12/30 10:40:39;;;;;;;;;;;;;;;8.82;61.61;99901.72;10236246;29;19976;-83
2022/12/30 10:46:05;;;;;;;;;;;;;;;8.71;62.76;99899.38;10239711;29;19923;-83
2022/12/30 10:51:08;;;;;;;;;;;;;;;8.90;61.76;99893.63;10235562;29;19929;-82
2022/12/30 10:56:15;;;;;;;;;;;;;;;8.66;62.00;99903.88;10230690;29;19923;-81
2022/12/30 11:01:18;;;;;;;;;;;;;;;8.86;61.78;99907.75;10229313;29;19929;-81
2022/12/30 11:06:25;;;;;;;;;;;;;;;8.92;61.45;99899.72;10246744;29;19965;-83
2022/12/30 11:14:42;;;;;;;;;;;;;;;9.32;58.47;99892.44;10236377;29;19923;-83
2022/12/30 11:17:15;;;;;;;;;;;;;;;10.53;55.50;99900.94;10240750;29;19927;-79
2022/12/30 11:22:17;;;;;;;;;;;;;;;12.01;50.29;99906.06;10236630;29;19930;-82
2022/12/30 11:27:27;;;;;;;;;;;;;;;12.73;47.83;99899.59;10232247;29;19951;-83
2022/12/30 11:32:28;;;;;;;;;;;;;;;13.96;46.42;99902.88;10247582;29;19923;-82
2022/12/30 11:37:35;;;;;;;;;;;;;;;13.38;46.15;99891.47;10232863;29;19923;-83
2022/12/30 11:42:36;;;;;;;;;;;;;;;13.32;46.22;99896.16;10229875;29;19965;-82
2022/12/30 11:47:42;;;;;;;;;;;;;;;13.20;46.31;99883.50;10232284;29;19927;-82
2022/12/30 11:52:59;;;;;;;;;;;;;;;13.31;46.43;99874.16;10230116;29;19929;-82
2022/12/30 11:58:01;;;;;;;;;;;;;;;12.96;46.02;99857.25;10263592;29;20005;-82
2022/12/30 12:03:14;;;;;;;;;;;;;;;11.99;48.70;99844.66;10266140;29;19929;-81
2022/12/30 12:08:21;;;;;;;;;;;;;;;11.69;50.55;99824.81;10269905;29;19953;-82
2022/12/30 12:13:32;;;;;;;;;;;;;;;10.83;52.20;99822.78;10252709;29;19994;-82
2022/12/30 12:18:37;;;;;;;;;;;;;;;11.00;51.13;99817.78;10251788;29;19923;-82
2022/12/30 12:23:46;;;;;;;;;;;;;;;10.89;51.83;99817.31;10238015;29;19933;-81
2022/12/30 12:28:49;;;;;;;;;;;;;;;11.05;51.95;99807.94;10239354;29;19922;-82
2022/12/30 12:33:56;;;;;;;;;;;;;;;11.20;50.91;99797.75;10242542;29;19922;-83
2022/12/30 12:39:02;;;;;;;;;;;;;;;10.88;51.37;99785.81;10241287;29;19946;-82
2022/12/30 12:44:10;;;;;;;;;;;;;;;10.61;52.69;99789.38;10244683;29;19947;-81
2022/12/30 12:49:20;;;;;;;;;;;;;;;10.61;51.97;99785.91;10230322;29;19911;-82
2022/12/30 12:54:32;;;;;;;;;;;;;;;10.35;53.35;99765.78;10262259;29;19966;-82
2022/12/30 12:59:50;;;;;;;;;;;;;;;10.07;54.89;99768.50;10241408;29;19927;-82
2022/12/30 13:05:17;;;;;;;;;;;;;;;9.98;55.88;99772.28;10236741;29;20269;-83
2022/12/30 13:10:33;;;;;;;;;;;;;;;9.83;55.58;99778.06;10242592;29;20408;-83
2022/12/30 13:15:49;;;;;;;;;;;;;;;9.75;56.14;99759.06;10254006;29;19922;-81
2022/12/30 13:20:52;;;;;;;;;;;;;;;9.71;57.28;99770.56;10264299;29;19923;-83
2022/12/30 13:25:59;;;;;;;;;;;;;;;9.51;58.42;99768.56;10241966;29;19929;-83
2022/12/30 13:31:31;;;;;;;;;;;;;;;9.41;58.37;99765.38;10258678;29;19922;-82
2022/12/30 13:36:33;;;;;;;;;;;;;;;9.41;58.29;99754.91;10242205;29;20372;-83
2022/12/30 13:41:40;;;;;;;;;;;;;;;9.58;56.56;99736.00;10239368;29;19923;-81
2022/12/30 13:46:50;;;;;;;;;;;;;;;9.63;56.91;99723.56;10242056;29;19907;-83
2022/12/30 13:51:57;;;;;;;;;;;;;;;9.27;58.82;99730.88;10250230;29;20432;-82
2022/12/30 13:57:00;;;;;;;;;;;;;;;9.30;58.65;99731.63;10258466;29;20341;-82
2022/12/30 14:02:17;;;;;;;;;;;;;;;9.03;59.67;99720.25;10258770;29;20021;-81
2022/12/30 14:07:42;;;;;;;;;;;;;;;8.80;61.10;99733.16;10239364;29;19986;-84
2022/12/30 14:12:45;;;;;;;;;;;;;;;8.77;60.54;99749.84;10244779;29;19929;-82
2022/12/30 14:17:47;;;;;;;;;;;;;;;8.75;59.97;99749.00;10243965;29;19923;-82
2022/12/30 14:22:48;;;;;;;;;;;;;;;8.61;61.05;99740.69;10257890;29;19922;-82
2022/12/30 14:28:10;;;;;;;;;;;;;;;8.55;60.53;99738.25;10241970;29;19927;-82
2022/12/30 14:33:30;;;;;;;;;;;;;;;8.53;61.10;99726.94;10238849;29;20289;-82
2022/12/30 14:38:39;;;;;;;;;;;;;;;8.41;61.08;99722.94;10239283;29;19994;-83
2022/12/30 14:43:50;;;;;;;;;;;;;;;8.08;62.73;99722.03;10240027;29;19923;-82
2022/12/30 14:49:10;;;;;;;;;;;;;;;7.93;63.49;99715.47;10237311;29;19922;-82
2022/12/30 14:54:14;;;;;;;;;;;;;;;8.04;62.94;99708.16;10236044;29;20477;-82
2022/12/30 14:59:16;;;;;;;;;;;;;;;7.92;63.90;99713.72;10251125;29;20440;-83
2022/12/30 15:04:18;;;;;;;;;;;;;;;7.88;63.96;99700.75;10251801;29;19951;-81
2022/12/30 15:09:23;;;;;;;;;;;;;;;7.94;63.64;99698.00;10250274;29;20261;-81
2022/12/30 15:14:25;;;;;;;;;;;;;;;7.68;64.81;99685.59;10232467;29;19986;-82
2022/12/30 15:19:26;;;;;;;;;;;;;;;7.75;64.25;99692.38;10236443;29;19982;-83
2022/12/30 15:24:29;;;;;;;;;;;;;;;7.65;64.91;99681.28;10235092;29;19922;-82
2022/12/30 15:29:32;;;;;;;;;;;;;;;7.40;65.97;99667.13;10231313;29;19950;-83
2022/12/30 15:34:38;;;;;;;;;;;;;;;7.33;66.36;99651.56;10299026;23;19927;-77
2022/12/30 15:39:43;;;;;;;;;;;;;;;7.18;66.82;99651.09;10271934;29;19923;-79
2022/12/30 15:44:45;;;;;;;;;;;;;;;7.24;67.40;99648.31;10280709;28;19945;-77
2022/12/30 15:49:51;;;;;;;;;;;;;;;6.94;68.14;99614.19;10274416;28;19954;-77
2022/12/30 15:54:57;;;;;;;;;;;;;;;6.91;68.59;99614.28;10271279;29;19926;-78
2022/12/30 16:00:01;;;;;;;;;;;;;;;6.92;68.27;99602.06;10274432;28;19922;-78
2022/12/30 16:05:20;;;;;;;;;;;;;;;7.00;67.96;99600.97;10285728;28;19923;-78
2022/12/30 16:10:22;;;;;;;;;;;;;;;7.13;68.08;99590.19;10291381;28;19923;-78
2022/12/30 16:15:32;;;;;;;;;;;;;;;7.09;68.11;99579.00;10284866;28;19926;-78
2022/12/30 16:20:49;;;;;;;;;;;;;;;7.44;66.23;99592.94;10287390;28;19977;-78
2022/12/30 16:25:52;;;;;;;;;;;;;;;7.01;67.84;99600.06;10273751;28;20369;-78
2022/12/30 16:30:54;;;;;;;;;;;;;;;7.00;68.11;99598.38;10298317;28;19933;-78
2022/12/30 16:35:58;;;;;;;;;;;;;;;7.06;67.83;99569.47;10296175;29;19922;-78
2022/12/30 16:40:59;;;;;;;;;;;;;;;7.00;68.59;99560.94;10294843;29;19922;-78
2022/12/30 16:46:03;;;;;;;;;;;;;;;7.04;68.75;99559.97;10291093;28;20296;-78
2022/12/30 16:51:08;;;;;;;;;;;;;;;7.50;66.37;99554.38;10301589;28;19986;-79
2022/12/30 16:56:10;;;;;;;;;;;;;;;7.36;67.06;99551.28;10286427;28;19957;-78
2022/12/30 17:01:13;;;;;;;;;;;;;;;7.41;67.14;99533.72;10280559;28;19922;-78
2022/12/30 17:06:16;;;;;;;;;;;;;;;7.53;67.21;99512.47;10288710;28;19927;-78
2022/12/30 17:11:23;;;;;;;;;;;;;;;7.64;67.32;99520.00;10285167;28;19922;-78
2022/12/30 17:16:24;;;;;;;;;;;;;;;7.78;67.15;99511.75;10300500;28;19922;-79
2022/12/30 17:21:34;;;;;;;;;;;;;;;7.83;67.27;99513.38;10279318;28;19922;-77
2022/12/30 17:26:36;;;;;;;;;;;;;;;7.94;67.11;99513.03;10285314;29;19993;-79
2022/12/30 17:31:38;;;;;;;;;;;;;;;8.09;66.67;99499.47;10278384;29;19923;-78
2022/12/30 17:36:40;;;;;;;;;;;;;;;7.93;67.41;99497.38;10289475;29;19922;-79
2022/12/30 17:41:42;;;;;;;;;;;;;;;7.85;67.53;99479.28;10295911;29;20120;-79
2022/12/30 17:46:44;;;;;;;;;;;;;;;7.81;67.88;99469.81;10291971;29;19926;-80
2022/12/30 17:51:45;;;;;;;;;;;;;;;7.77;68.14;99474.28;10292792;29;19922;-79
2022/12/30 17:56:47;;;;;;;;;;;;;;;7.95;66.78;99467.63;10321064;28;19986;-79
2022/12/30 18:01:49;;;;;;;;;;;;;;;7.87;66.92;99466.16;10285928;29;19922;-79
2022/12/30 18:06:51;;;;;;;;;;;;;;;8.02;66.02;99461.31;10316021;28;19923;-77
2022/12/30 18:11:52;;;;;;;;;;;;;;;8.08;65.77;99462.88;10293225;29;19994;-78
2022/12/30 18:16:54;;;;;;;;;;;;;;;7.96;66.59;99453.63;10325989;28;19926;-78
2022/12/30 18:21:59;;;;;;;;;;;;;;;8.06;66.01;99438.53;10295834;28;19910;-80
2022/12/30 18:27:05;;;;;;;;;;;;;;;8.14;65.13;99441.75;10334372;28;19923;-78
2022/12/30 18:32:07;;;;;;;;;;;;;;;8.19;65.53;99433.75;10304974;28;19930;-78
2022/12/30 18:37:09;;;;;;;;;;;;;;;7.99;66.05;99430.00;10287295;29;19936;-79
2022/12/30 18:42:11;;;;;;;;;;;;;;;8.00;66.06;99428.22;10276812;29;19973;-77
2022/12/30 18:47:12;;;;;;;;;;;;;;;8.20;65.13;99423.25;10273660;29;19922;-77
2022/12/30 18:52:14;;;;;;;;;;;;;;;8.21;65.20;99424.09;10309598;28;20013;-78
2022/12/30 18:57:16;;;;;;;;;;;;;;;8.06;65.69;99418.44;10271244;29;19982;-79
2022/12/30 19:02:17;;;;;;;;;;;;;;;8.15;65.60;99419.91;10306410;28;19922;-79
2022/12/30 19:07:19;;;;;;;;;;;;;;;8.04;66.32;99407.16;10306276;28;19926;-78
2022/12/30 19:12:21;;;;;;;;;;;;;;;8.14;65.83;99412.09;10308725;28;19957;-79
2022/12/30 19:17:23;;;;;;;;;;;;;;;7.97;66.32;99396.91;10273570;29;19986;-78
2022/12/30 19:22:24;;;;;;;;;;;;;;;8.05;66.00;99403.63;10279371;29;20367;-78
2022/12/30 19:27:26;;;;;;;;;;;;;;;7.98;66.21;99390.81;10277041;29;19929;-77
2022/12/30 19:32:27;;;;;;;;;;;;;;;7.94;66.20;99361.25;10265213;29;20291;-78
2022/12/30 19:37:29;;;;;;;;;;;;;;;8.31;65.08;99388.84;10265241;28;20299;-79
2022/12/30 19:42:30;;;;;;;;;;;;;;;8.52;64.51;99395.19;10269229;29;19928;-78
2022/12/30 19:47:33;;;;;;;;;;;;;;;8.55;64.72;99389.84;10263864;29;19922;-78
2022/12/30 19:52:35;;;;;;;;;;;;;;;9.05;63.44;99384.59;10266579;29;19926;-79
2022/12/30 19:57:37;;;;;;;;;;;;;;;9.08;66.12;99379.25;10270946;29;20269;-79
2022/12/30 20:02:38;;;;;;;;;;;;;;;9.17;67.49;99373.69;10270080;29;19970;-78
2022/12/30 20:07:40;;;;;;;;;;;;;;;9.01;70.35;99369.88;10284456;28;20024;-79
2022/12/30 20:12:41;;;;;;;;;;;;;;;8.83;73.84;99369.63;10285100;28;19926;-79
2022/12/30 20:17:43;;;;;;;;;;;;;;;8.64;74.58;99342.38;10297816;28;20383;-77
2022/12/30 20:22:46;;;;;;;;;;;;;;;8.75;73.75;99342.84;10264817;29;19926;-78
2022/12/30 20:27:48;;;;;;;;;;;;;;;8.73;74.70;99328.94;10267114;28;19923;-79
2022/12/30 20:32:49;;;;;;;;;;;;;;;8.71;75.30;99338.59;10272779;29;19922;-79
2022/12/30 20:37:51;;;;;;;;;;;;;;;8.80;74.86;99324.31;10269934;29;20024;-80
2022/12/30 20:42:52;;;;;;;;;;;;;;;8.80;76.56;99321.69;10290803;28;19927;-79
2022/12/30 20:47:54;;;;;;;;;;;;;;;8.79;77.83;99293.78;10307879;28;19922;-78
2022/12/30 20:52:55;;;;;;;;;;;;;;;8.89;78.05;99284.69;10283186;29;19922;-78
2022/12/30 20:57:57;;;;;;;;;;;;;;;8.81;78.74;99271.88;10282959;29;19928;-80
2022/12/30 21:02:59;;;;;;;;;;;;;;;9.04;76.42;99273.63;10282154;29;19922;-78
2022/12/30 21:08:00;;;;;;;;;;;;;;;8.98;77.21;99252.88;10316325;28;19970;-78
2022/12/30 21:13:02;;;;;;;;;;;;;;;8.90;77.04;99252.34;10313612;28;19926;-79
2022/12/30 21:18:03;;;;;;;;;;;;;;;8.90;77.54;99254.06;10299178;28;19922;-79
2022/12/30 21:23:05;;;;;;;;;;;;;;;8.99;77.47;99264.25;10288828;29;19969;-79
2022/12/30 21:28:07;;;;;;;;;;;;;;;8.81;79.40;99278.91;10287101;28;20014;-80
2022/12/30 21:33:08;;;;;;;;;;;;;;;9.07;77.83;99270.91;10292228;23;20006;-82
2022/12/30 22:05:19;;;;;;;;;;;;;;;9.91;75.80;99250.94;10252152;29;20001;-80
2022/12/30 22:10:29;;;;;;;;;;;;;;;9.85;76.75;99266.97;10253413;29;19923;-80
2022/12/30 22:15:31;;;;;;;;;;;;;;;9.88;76.82;99263.38;10245688;28;19969;-79
2022/12/30 22:20:33;;;;;;;;;;;;;;;9.88;77.32;99266.00;10241762;29;19923;-79
2022/12/30 22:25:36;;;;;;;;;;;;;;;9.93;77.04;99274.53;10248725;29;19923;-80
2022/12/30 22:30:38;;;;;;;;;;;;;;;10.14;77.57;99276.28;10245891;29;19922;-79
2022/12/30 22:35:42;;;;;;;;;;;;;;;10.01;81.96;99277.69;10234740;29;19922;-80
2022/12/30 22:40:44;;;;;;;;;;;;;;;9.72;88.50;99276.25;10244751;29;19926;-80
2022/12/30 22:45:46;;;;;;;;;;;;;;;9.46;89.79;99269.41;10243822;29;19923;-80
2022/12/30 22:50:47;;;;;;;;;;;;;;;9.62;86.36;99269.69;10238042;29;19923;-82
2022/12/30 22:55:52;;;;;;;;;;;;;;;9.58;85.81;99267.16;10230606;29;19958;-81
2022/12/30 23:00:54;;;;;;;;;;;;;;;9.56;85.57;99258.50;10232873;29;20450;-81
2022/12/30 23:05:55;;;;;;;;;;;;;;;9.67;84.20;99270.34;10235286;29;19929;-81
2022/12/30 23:10:57;;;;;;;;;;;;;;;9.79;83.18;99277.72;10237636;29;19947;-81
2022/12/30 23:16:05;;;;;;;;;;;;;;;9.77;83.10;99269.91;10232128;29;19929;-82
2022/12/30 23:21:16;;;;;;;;;;;;;;;9.91;82.39;99269.31;10234859;29;19923;-81
2022/12/30 23:26:17;;;;;;;;;;;;;;;9.85;82.84;99282.72;10231972;29;19922;-82
2022/12/30 23:31:22;;;;;;;;;;;;;;;9.91;82.67;99289.47;10230773;29;19987;-83
2022/12/30 23:36:25;;;;;;;;;;;;;;;9.88;82.97;99293.09;10231743;29;19931;-82
2022/12/30 23:41:27;;;;;;;;;;;;;;;9.97;82.86;99282.22;10232579;29;20463;-81
2022/12/30 23:46:28;;;;;;;;;;;;;;;9.81;84.44;99289.00;10233995;29;19946;-81
2022/12/30 23:51:31;;;;;;;;;;;;;;;9.67;85.97;99294.81;10233907;29;21662;-82
2022/12/30 23:56:34;;;;;;;;;;;;;;;9.58;87.34;99318.78;10233137;29;19974;-83
